ADT,Max TemperatureF,Mean TemperatureF,Min TemperatureF,Max Dew PointF,MeanDew PointF,Min DewpointF,Max Humidity, Mean Humidity, Min Humidity, Max Sea Level PressureIn, Mean Sea Level PressureIn, Min Sea Level PressureIn, Max VisibilityMiles, Mean VisibilityMiles, Min VisibilityMiles, Max Wind SpeedMPH, Mean Wind SpeedMPH, Max Gust SpeedMPH,PrecipitationIn, CloudCover, Events, WindDirDegrees
2012-4-1,41,30,19,23,18,14,86,62,41,29.87,29.79,29.71,15,15,15,10,3,,0.00,3,,74
2012-4-2,42,33,24,27,21,18,86,63,36,29.69,29.63,29.60,15,15,15,12,6,21,0.00,4,,23
2012-4-3,33,28,23,23,20,18,86,71,56,29.65,29.60,29.51,15,15,15,21,8,32,0.00,3,,355
2012-4-4,39,34,30,27,23,21,80,64,56,29.49,29.38,29.32,15,15,12,15,10,23,0.00,5,,335
2012-4-5,42,38,33,30,24,18,87,59,39,29.60,29.43,29.31,15,14,10,15,8,23,0.00,7,Rain-Snow,292
2012-4-6,44,37,30,25,22,19,75,56,37,29.88,29.74,29.61,15,15,15,14,8,,0.00,4,,256
2012-4-7,42,33,24,30,26,19,87,74,53,29.94,29.89,29.81,15,11,1,22,10,32,0.00,6,Snow,22
2012-4-8,37,32,28,32,29,25,100,88,75,29.78,29.45,29.17,15,6,0,32,22,45,0.00,8,Snow,267
2012-4-9,48,40,33,38,34,30,93,82,48,29.64,29.56,29.45,15,14,10,22,16,31,0.04,7,Rain,167
2012-4-10,56,46,36,38,35,27,93,68,32,29.73,29.63,29.51,15,15,15,18,11,24,0.00,6,Rain,199
2012-4-11,58,45,32,37,34,27,93,70,41,29.89,29.84,29.74,15,15,15,13,7,,0.00,3,,223
2012-4-12,36,34,32,34,32,30,100,91,81,29.98,29.90,29.84,15,5,0,18,11,28,0.03,8,Fog-Rain-Snow,7
2012-4-13,43,37,31,30,27,23,93,72,46,30.00,29.96,29.93,15,15,10,14,11,23,0.00,5,Snow,3
2012-4-14,50,40,29,32,25,17,93,57,16,29.93,29.88,29.82,15,15,15,15,8,22,0.00,3,,249
2012-4-15,64,46,28,41,28,14,87,52,12,30.06,30.01,29.94,15,15,15,12,5,,0.00,5,,182
2012-4-16,66,54,42,52,46,37,93,74,54,30.15,30.08,30.05,15,15,15,22,13,31,0.00,2,,186
2012-4-17,66,58,50,56,52,48,94,82,62,30.05,29.99,29.93,15,14,10,24,18,32,0.00,5,,183
2012-4-18,50,40,30,54,34,27,94,73,49,30.23,30.12,29.96,15,15,15,17,10,25,0.00,4,,9
2012-4-19,44,35,26,30,26,25,93,71,36,30.22,30.15,30.06,15,15,15,12,5,17,0.00,3,,30
2012-4-20,64,46,29,41,36,28,100,74,31,30.05,30.02,29.99,15,10,0,15,8,17,0.00,4,Fog,192
2012-4-21,65,52,38,48,42,37,93,71,38,30.03,29.96,29.89,15,14,6,23,11,28,0.24,6,Rain,179
2012-4-22,54,44,33,54,43,32,100,95,87,30.09,29.92,29.81,15,5,0,24,9,25,0.24,8,Fog-Rain,202
2012-4-23,59,45,33,55,41,30,100,92,87,30.12,30.02,29.87,15,9,2,17,12,23,0.00,8,Rain,77
2012-4-24,64,58,51,57,55,50,94,89,77,29.86,29.78,29.71,15,11,2,29,20,39,0.00,7,Rain,157
2012-4-25,58,51,44,54,48,43,100,93,72,29.94,29.83,29.71,15,10,1,10,4,,0.24,7,Fog-Rain,360
2012-4-26,59,51,43,45,40,30,100,72,31,29.89,29.79,29.64,15,14,3,18,9,25,0.28,4,Rain,236
2012-4-27,57,49,41,52,43,37,94,86,71,29.87,29.49,29.21,15,11,2,26,14,37,0.79,7,Rain,168
2012-4-28,38,36,33,36,25,18,87,62,37,29.88,29.65,29.37,15,15,12,22,17,33,0.01,8,Rain-Snow,270
2012-4-29,45,37,29,23,18,16,75,48,23,30.01,29.91,29.85,15,15,15,16,8,23,0.00,2,,285
2012-4-30,41,34,28,25,23,19,75,62,38,30.26,30.13,30.01,15,15,10,15,6,22,0.00,4,Snow,336